Time;durP1;ratioP1;P1;durP2;ratioP2;P2;SDS_P1;SDS_P2;PMS_P1;PMS_P2;Temp;Humidity;BMP_temperature;BMP_pressure;BME280_temperature;BME280_humidity;BME280_pressure;Samples;Min_cycle;Max_cycle;Signal;HPM_P1;HPM_P2
2023/12/19 00:01:20;;;;;;;19.60;12.50;;;;;;;4.25;98.33;100829.69;181637;1254;43921;-82
2023/12/19 00:05:24;;;;;;;20.00;10.60;;;;;;;4.34;98.32;100842.27;181493;1254;43760;-82
2023/12/19 00:09:27;;;;;;;14.60;10.30;;;;;;;4.44;98.41;100849.34;181396;1253;43835;-81
2023/12/19 00:13:30;;;;;;;11.90;8.50;;;;;;;4.59;98.45;100852.53;181578;1254;59754;-82
2023/12/19 00:17:33;;;;;;;14.40;10.50;;;;;;;4.74;98.51;100860.79;181662;1253;43834;-81
2023/12/19 00:21:36;;;;;;;26.70;15.40;;;;;;;4.94;97.96;100875.10;181691;1254;44057;-82
2023/12/19 00:25:39;;;;;;;34.60;20.70;;;;;;;5.17;96.50;100872.21;181630;1254;44256;-83
2023/12/19 00:29:42;;;;;;;19.70;12.70;;;;;;;5.32;94.78;100876.79;181614;1254;43831;-82
2023/12/19 00:33:46;;;;;;;52.20;22.90;;;;;;;5.32;93.30;100878.52;181619;1254;58250;-82
2023/12/19 00:37:49;;;;;;;15.30;10.10;;;;;;;5.34;91.90;100873.00;181642;1254;44160;-80
2023/12/19 00:41:52;;;;;;;15.10;12.50;;;;;;;5.43;91.52;100865.14;181691;1254;44239;-81
2023/12/19 00:45:55;;;;;;;17.20;10.80;;;;;;;5.52;92.04;100853.61;181461;1254;43880;-82
2023/12/19 00:49:58;;;;;;;14.50;10.60;;;;;;;5.53;91.97;100845.13;181492;1253;44239;-82
2023/12/19 00:54:01;;;;;;;12.90;9.40;;;;;;;5.53;92.38;100847.72;181590;1254;59272;-82
2023/12/19 00:58:04;;;;;;;11.00;9.10;;;;;;;5.58;92.64;100850.13;181636;1254;43963;-82
2023/12/19 01:02:08;;;;;;;16.20;8.50;;;;;;;5.68;92.85;100849.43;181678;1254;44068;-83
2023/12/19 01:06:11;;;;;;;13.90;8.70;;;;;;;5.74;91.96;100846.16;181707;1253;44247;-83
2023/12/19 01:10:14;;;;;;;16.40;8.90;;;;;;;5.79;91.51;100843.39;181687;1254;44400;-82
2023/12/19 01:14:17;;;;;;;13.40;9.30;;;;;;;5.84;91.98;100855.98;181537;1253;58228;-82
2023/12/19 01:18:20;;;;;;;13.40;10.70;;;;;;;5.89;93.31;100859.59;181685;1254;44017;-82
2023/12/19 01:22:23;;;;;;;17.10;11.90;;;;;;;5.92;92.44;100851.54;181623;1253;43975;-81
2023/12/19 01:26:27;;;;;;;30.20;16.90;;;;;;;5.96;93.18;100864.50;181571;1253;44210;-82
2023/12/19 01:30:32;;;;;;;22.20;13.30;;;;;;;5.99;92.60;100863.30;181438;1253;44145;-83
2023/12/19 01:34:36;;;;;;;24.20;14.20;;;;;;;6.00;91.64;100853.76;181550;1254;58230;-82
2023/12/19 01:38:39;;;;;;;42.00;23.30;;;;;;;5.97;90.65;100828.21;181500;1253;43858;-80
2023/12/19 01:42:42;;;;;;;30.70;16.10;;;;;;;5.97;90.15;100814.66;181618;1254;43836;-82
2023/12/19 01:46:46;;;;;;;20.30;9.60;;;;;;;6.08;88.84;100824.48;181668;1253;43898;-83
2023/12/19 01:50:50;;;;;;;28.00;12.60;;;;;;;6.17;90.55;100852.34;181448;1254;43830;-80
2023/12/19 01:54:53;;;;;;;28.80;16.70;;;;;;;6.24;90.56;100850.75;181525;1254;59998;-82
2023/12/19 01:58:56;;;;;;;19.50;13.50;;;;;;;6.27;90.19;100850.38;181524;1254;43805;-84
2023/12/19 02:03:00;;;;;;;21.90;13.20;;;;;;;6.19;90.08;100838.66;181558;1254;43842;-83
2023/12/19 02:07:03;;;;;;;18.20;12.30;;;;;;;6.05;90.33;100831.86;181735;1253;43992;-84
2023/12/19 02:11:06;;;;;;;19.20;11.40;;;;;;;5.87;89.85;100816.20;181672;1254;43798;-82
2023/12/19 02:15:09;;;;;;;14.10;9.90;;;;;;;5.84;89.43;100801.42;181709;1254;59212;-83
2023/12/19 02:19:13;;;;;;;14.20;8.60;;;;;;;5.85;89.21;100807.15;181617;1253;44246;-84
2023/12/19 02:23:16;;;;;;;7.40;6.60;;;;;;;5.87;88.20;100817.45;181552;1253;43755;-84
2023/12/19 02:27:23;;;;;;;8.20;7.20;;;;;;;5.93;88.33;100821.73;181712;1253;43905;-84
2023/12/19 02:31:26;;;;;;;9.90;7.90;;;;;;;5.92;88.32;100812.11;181693;1254;44235;-83
2023/12/19 02:35:30;;;;;;;33.40;18.30;;;;;;;5.85;87.15;100803.64;181498;1254;59578;-84
2023/12/19 02:39:33;;;;;;;24.50;17.60;;;;;;;5.81;86.95;100797.73;181706;1253;44008;-83
2023/12/19 02:43:37;;;;;;;15.60;10.60;;;;;;;5.78;86.72;100792.93;181651;1253;43939;-83
2023/12/19 02:47:56;;;;;;;10.30;7.80;;;;;;;5.78;86.41;100787.81;181633;1252;44186;-84
2023/12/19 02:52:00;;;;;;;12.20;8.00;;;;;;;5.79;85.78;100781.26;181732;1254;43982;-83
2023/12/19 02:56:03;;;;;;;10.30;5.50;;;;;;;5.78;85.31;100779.39;181670;1253;59538;-82
2023/12/19 03:00:07;;;;;;;9.70;6.40;;;;;;;5.78;85.49;100771.10;181457;1253;44248;-84
2023/12/19 03:04:10;;;;;;;8.40;5.80;;;;;;;5.84;84.26;100767.42;181737;1254;43825;-81
2023/12/19 03:08:13;;;;;;;9.50;6.40;;;;;;;5.94;83.01;100763.95;181715;1254;44004;-84
2023/12/19 03:12:16;;;;;;;10.60;6.70;;;;;;;5.95;82.30;100766.33;181638;1254;43885;-82
2023/12/19 03:16:19;;;;;;;13.50;10.80;;;;;;;5.99;82.28;100774.56;181635;1253;58169;-83
2023/12/19 03:20:23;;;;;;;15.50;9.30;;;;;;;6.05;81.52;100779.21;181663;1253;43772;-84
2023/12/19 03:24:28;;;;;;;12.20;6.10;;;;;;;6.06;79.75;100772.79;181752;1254;43698;-84
2023/12/19 03:28:31;;;;;;;17.40;8.30;;;;;;;6.05;80.05;100761.06;181673;1253;43830;-83
2023/12/19 03:32:36;;;;;;;8.00;5.50;;;;;;;6.04;78.68;100756.55;181481;1254;43940;-83
2023/12/19 03:36:39;;;;;;;6.80;5.10;;;;;;;6.04;76.62;100759.00;181708;1253;59241;-83
2023/12/19 03:40:42;;;;;;;6.00;3.90;;;;;;;6.04;76.83;100769.02;181443;1254;43885;-83
2023/12/19 03:44:45;;;;;;;5.80;4.30;;;;;;;6.04;74.81;100761.30;181693;1253;44058;-83
2023/12/19 03:48:48;;;;;;;3.00;2.70;;;;;;;6.04;74.18;100776.63;181680;1255;43840;-84
2023/12/19 03:52:52;;;;;;;8.30;3.40;;;;;;;6.05;74.57;100782.71;181618;1254;43729;-82
2023/12/19 03:56:55;;;;;;;5.60;3.00;;;;;;;6.09;74.29;100784.48;181591;1253;59255;-82
2023/12/19 04:01:01;;;;;;;4.90;3.50;;;;;;;6.18;73.03;100785.22;181661;1254;43850;-83
2023/12/19 04:05:05;;;;;;;4.30;2.80;;;;;;;6.26;73.71;100767.83;181672;1254;43858;-82
2023/12/19 04:09:08;;;;;;;4.00;2.50;;;;;;;6.29;73.67;100751.80;181587;1253;43801;-83
2023/12/19 04:13:11;;;;;;;10.90;2.80;;;;;;;6.40;71.93;100767.77;181732;1254;44094;-82
2023/12/19 04:17:14;;;;;;;4.10;2.20;;;;;;;6.59;72.63;100758.77;181745;1253;58193;-85
2023/12/19 04:21:18;;;;;;;3.00;2.80;;;;;;;6.77;73.87;100746.27;181628;1253;43816;-83
2023/12/19 04:25:21;;;;;;;4.60;2.30;;;;;;;6.92;72.49;100738.33;181604;1253;44220;-83
2023/12/19 04:29:24;;;;;;;3.40;2.50;;;;;;;7.04;72.37;100746.13;181568;1253;44096;-85
2023/12/19 04:33:27;;;;;;;3.90;2.60;;;;;;;7.10;72.62;100755.83;181748;1253;44189;-85
2023/12/19 04:37:31;;;;;;;6.80;2.30;;;;;;;7.15;70.11;100765.60;181600;1254;60335;-85
2023/12/19 04:41:34;;;;;;;6.40;3.10;;;;;;;7.25;71.45;100770.11;181885;1254;43931;-85
2023/12/19 04:45:37;;;;;;;5.50;2.60;;;;;;;7.26;72.89;100757.48;181802;1254;43935;-83
2023/12/19 04:49:40;;;;;;;5.90;2.80;;;;;;;7.26;73.90;100755.56;181572;1253;44301;-84
2023/12/19 04:53:43;;;;;;;5.80;2.60;;;;;;;7.18;74.53;100741.73;181780;1254;44758;-84
2023/12/19 04:57:46;;;;;;;6.00;3.30;;;;;;;7.10;74.25;100731.80;181826;1253;58612;-84
2023/12/19 05:01:50;;;;;;;3.20;2.00;;;;;;;7.03;73.54;100718.50;181715;1254;44121;-84
2023/12/19 05:05:53;;;;;;;6.90;3.10;;;;;;;6.96;73.04;100718.02;181457;1254;43885;-85
2023/12/19 05:09:56;;;;;;;7.70;3.20;;;;;;;6.88;72.30;100706.66;181622;1254;43977;-85
2023/12/19 05:13:59;;;;;;;4.90;2.20;;;;;;;6.84;71.99;100700.54;181699;1254;43836;-86
2023/12/19 05:18:03;;;;;;;4.20;2.00;;;;;;;6.80;71.24;100706.45;181498;1254;59458;-85
2023/12/19 05:22:06;;;;;;;4.90;3.50;;;;;;;6.77;70.70;100712.77;181742;1253;43831;-86
2023/12/19 05:26:09;;;;;;;4.60;2.10;;;;;;;6.74;70.45;100726.54;181815;1254;43805;-86
2023/12/19 05:30:13;;;;;;;3.50;2.50;;;;;;;6.72;69.67;100730.54;181526;1254;43995;-84
2023/12/19 05:34:16;;;;;;;3.30;2.50;;;;;;;6.71;69.46;100738.68;181499;1254;43956;-86
2023/12/19 05:38:20;;;;;;;10.70;7.50;;;;;;;6.73;69.17;100740.03;181520;1254;57337;-85
2023/12/19 05:42:24;;;;;;;13.80;7.40;;;;;;;6.74;68.36;100741.38;181560;1254;44043;-85
2023/12/19 05:46:27;;;;;;;9.00;7.90;;;;;;;6.71;68.07;100739.23;181674;1253;43933;-86
2023/12/19 05:50:31;;;;;;;9.80;6.60;;;;;;;6.64;68.51;100735.94;181817;1255;44068;-86
2023/12/19 05:54:34;;;;;;;6.60;4.00;;;;;;;6.53;68.83;100738.52;181714;1253;43830;-86
2023/12/19 05:58:37;;;;;;;3.70;2.80;;;;;;;6.47;69.32;100734.25;181678;1254;59074;-85
2023/12/19 06:02:40;;;;;;;3.00;2.20;;;;;;;6.42;69.71;100726.22;181606;1254;43850;-86
2023/12/19 06:06:44;;;;;;;3.20;2.10;;;;;;;6.35;69.50;100721.01;181837;1254;44082;-86
2023/12/19 06:10:47;;;;;;;5.90;2.70;;;;;;;6.40;69.00;100723.17;181597;1253;43791;-86
2023/12/19 06:14:50;;;;;;;5.30;2.30;;;;;;;6.46;68.91;100733.95;181790;1254;43930;-86
2023/12/19 06:18:54;;;;;;;4.30;2.50;;;;;;;6.53;68.95;100732.17;181531;1254;59541;-86
2023/12/19 06:22:58;;;;;;;6.90;2.50;;;;;;;6.61;69.07;100728.73;181638;1252;43777;-85
2023/12/19 06:27:01;;;;;;;7.70;3.70;;;;;;;6.62;69.38;100723.72;181644;1252;43789;-86
2023/12/19 06:31:05;;;;;;;7.00;3.50;;;;;;;6.56;68.97;100718.80;181693;1254;44291;-85
2023/12/19 06:35:09;;;;;;;3.60;2.60;;;;;;;6.49;69.73;100719.70;181638;1254;44398;-85
2023/12/19 06:39:12;;;;;;;5.50;2.70;;;;;;;6.44;70.10;100723.69;181660;1254;58188;-86
2023/12/19 06:43:17;;;;;;;4.70;2.90;;;;;;;6.41;70.18;100724.89;181667;1254;43853;-86
2023/12/19 06:47:20;;;;;;;4.90;3.30;;;;;;;6.38;70.60;100718.90;181728;1254;43802;-86
2023/12/19 06:51:25;;;;;;;4.50;1.90;;;;;;;6.33;71.28;100710.37;181761;1254;44091;-85
2023/12/19 06:55:30;;;;;;;5.60;2.70;;;;;;;6.32;70.52;100706.91;181425;1254;43806;-85
2023/12/19 06:59:34;;;;;;;7.50;3.70;;;;;;;6.34;70.05;100704.49;181849;1253;58212;-86
2023/12/19 07:03:37;;;;;;;7.70;3.60;;;;;;;6.40;70.17;100709.40;181578;1254;44088;-86
2023/12/19 07:07:40;;;;;;;3.80;3.10;;;;;;;6.48;70.34;100705.52;181708;1253;43715;-86
2023/12/19 07:11:43;;;;;;;6.10;4.60;;;;;;;6.56;69.62;100704.14;181616;1254;44093;-87
2023/12/19 07:15:46;;;;;;;6.40;3.30;;;;;;;6.64;69.41;100711.45;181505;1252;44091;-86
2023/12/19 07:19:50;;;;;;;3.70;1.90;;;;;;;6.77;68.37;100706.59;181585;1254;59218;-86
2023/12/19 07:23:54;;;;;;;3.60;2.30;;;;;;;6.97;67.05;100704.56;181760;1254;44395;-83
2023/12/19 07:27:57;;;;;;;3.10;2.20;;;;;;;7.15;67.08;100704.73;181815;1254;43807;-85
2023/12/19 07:32:00;;;;;;;6.60;3.30;;;;;;;7.32;64.58;100689.04;181924;1255;44052;-85
2023/12/19 07:36:04;;;;;;;7.10;2.70;;;;;;;7.52;64.10;100678.63;181711;1254;44136;-85
2023/12/19 07:40:10;;;;;;;5.20;2.30;;;;;;;7.69;63.76;100668.91;181739;1253;59561;-86
2023/12/19 07:44:15;;;;;;;5.50;2.20;;;;;;;7.82;64.10;100672.52;181780;1255;43848;-86
2023/12/19 07:48:18;;;;;;;6.80;3.10;;;;;;;7.87;64.00;100675.92;181858;1254;44156;-87
2023/12/19 07:52:21;;;;;;;4.30;2.70;;;;;;;7.85;65.26;100673.39;181862;1254;43838;-86
2023/12/19 07:56:24;;;;;;;5.40;2.90;;;;;;;7.80;66.17;100673.36;181642;1254;46003;-86
2023/12/19 08:00:28;;;;;;;2.70;2.50;;;;;;;7.68;67.42;100673.79;181699;1256;59085;-86
2023/12/19 08:04:31;;;;;;;4.60;2.70;;;;;;;7.51;70.02;100678.69;181878;1255;43909;-86
2023/12/19 08:08:34;;;;;;;2.70;2.50;;;;;;;7.40;70.00;100673.89;181590;1253;43778;-85
2023/12/19 08:12:38;;;;;;;6.70;2.60;;;;;;;7.38;70.74;100668.05;181703;1252;43850;-87
2023/12/19 08:16:42;;;;;;;4.80;3.50;;;;;;;7.38;72.70;100664.34;181651;1253;43918;-86
2023/12/19 08:20:45;;;;;;;7.00;3.90;;;;;;;7.42;72.51;100662.50;181622;1254;57724;-86
2023/12/19 08:24:49;;;;;;;9.50;3.30;;;;;;;7.34;73.65;100658.56;181825;1253;44357;-85
2023/12/19 08:28:52;;;;;;;35.70;16.20;;;;;;;7.25;73.57;100651.70;181637;1255;43729;-86
2023/12/19 08:32:56;;;;;;;23.60;16.50;;;;;;;7.32;72.89;100643.71;181839;1253;44081;-84
2023/12/19 08:36:59;;;;;;;20.10;14.50;;;;;;;7.47;73.32;100626.34;181592;1254;43933;-86
2023/12/19 08:41:02;;;;;;;16.60;8.90;;;;;;;7.66;71.76;100616.70;181639;1254;59015;-87
2023/12/19 08:45:05;;;;;;;13.00;10.40;;;;;;;7.76;71.64;100602.61;181619;1254;44239;-86
2023/12/19 08:49:09;;;;;;;7.00;5.70;;;;;;;7.85;72.32;100587.23;181599;1254;43862;-87
2023/12/19 08:53:12;;;;;;;8.20;5.30;;;;;;;7.97;70.14;100583.48;181594;1253;43708;-86
2023/12/19 08:57:16;;;;;;;10.30;6.10;;;;;;;8.10;69.22;100572.70;181744;1254;167658;-86
2023/12/19 09:01:19;;;;;;;11.30;7.50;;;;;;;8.15;69.33;100560.16;181748;1253;57921;-86
2023/12/19 09:05:23;;;;;;;6.80;5.50;;;;;;;8.27;69.66;100558.11;181576;1254;44036;-84
2023/12/19 09:09:27;;;;;;;9.50;5.70;;;;;;;8.39;69.58;100556.60;181743;1253;44245;-87
2023/12/19 09:13:30;;;;;;;10.80;8.10;;;;;;;8.51;70.08;100550.20;181649;1254;43931;-86
2023/12/19 09:17:33;;;;;;;11.90;7.20;;;;;;;8.63;69.69;100532.95;181857;1253;43845;-86
2023/12/19 09:21:37;;;;;;;12.00;8.70;;;;;;;8.80;70.01;100517.75;181654;1254;58242;-85
2023/12/19 09:25:40;;;;;;;15.60;8.90;;;;;;;9.00;69.75;100514.77;181759;1254;43711;-87
2023/12/19 09:29:43;;;;;;;10.80;6.80;;;;;;;9.17;68.29;100528.27;181622;1254;43905;-86
2023/12/19 09:33:47;;;;;;;11.00;8.20;;;;;;;9.30;69.21;100528.04;181776;1254;44009;-87
2023/12/19 09:37:50;;;;;;;15.70;8.40;;;;;;;9.33;68.75;100521.29;181627;1254;43882;-85
2023/12/19 09:41:53;;;;;;;19.50;10.90;;;;;;;9.39;69.99;100521.57;181889;1255;56955;-87
2023/12/19 09:45:56;;;;;;;15.30;10.70;;;;;;;9.38;69.41;100515.05;181718;1253;44085;-87
2023/12/19 09:50:01;;;;;;;16.10;8.30;;;;;;;9.36;69.69;100511.48;181690;1254;43783;-86
2023/12/19 09:54:05;;;;;;;13.20;5.90;;;;;;;9.40;70.01;100504.10;181642;1254;43901;-85
2023/12/19 09:58:12;;;;;;;14.00;8.30;;;;;;;9.47;70.10;100496.21;181611;1254;43994;-86
2023/12/19 10:02:17;;;;;;;11.20;6.40;;;;;;;9.48;69.95;100495.37;181878;1256;59520;-87
2023/12/19 10:06:20;;;;;;;14.20;7.90;;;;;;;9.52;70.23;100480.75;181817;1254;43742;-86
2023/12/19 10:10:48;;;;;;;13.00;6.50;;;;;;;9.54;70.85;100465.92;181847;1254;44046;-87
2023/12/19 10:14:51;;;;;;;13.20;8.00;;;;;;;9.57;71.24;100461.83;181810;1254;44089;-87
2023/12/19 10:18:56;;;;;;;13.90;8.90;;;;;;;9.61;71.78;100450.20;181866;1252;44335;-87
2023/12/19 10:23:06;;;;;;;13.50;9.30;;;;;;;9.63;71.73;100438.88;181857;1254;58284;-86
2023/12/19 10:27:10;;;;;;;22.00;14.60;;;;;;;9.61;70.89;100429.31;181639;1256;44273;-87
2023/12/19 10:31:15;;;;;;;28.40;14.80;;;;;;;9.63;70.95;100425.80;181535;1254;43882;-87
2023/12/19 10:35:19;;;;;;;17.00;9.10;;;;;;;9.66;71.23;100418.67;181673;1254;43994;-86
2023/12/19 10:39:22;;;;;;;16.00;10.80;;;;;;;9.74;70.95;100409.20;181799;1254;44072;-87
2023/12/19 10:43:25;;;;;;;19.10;12.40;;;;;;;9.83;70.74;100397.66;181689;1256;59397;-87
2023/12/19 10:47:28;;;;;;;16.00;11.40;;;;;;;9.94;70.80;100390.65;181669;1253;43915;-87
2023/12/19 10:51:32;;;;;;;12.10;8.50;;;;;;;10.09;71.32;100382.93;181797;1254;43880;-86
2023/12/19 10:55:45;;;;;;;12.60;6.60;;;;;;;10.22;70.03;100376.96;181696;1254;44079;-87
2023/12/19 10:59:58;;;;;;;7.70;6.10;;;;;;;10.34;69.36;100369.30;181594;1256;44472;-87
2023/12/19 11:04:09;;;;;;;8.60;5.60;;;;;;;10.41;68.87;100349.63;181558;1254;57132;-87
2023/12/19 11:08:17;;;;;;;15.00;10.60;;;;;;;10.44;69.32;100336.09;181748;1254;43834;-84
2023/12/19 11:12:21;;;;;;;11.80;7.60;;;;;;;10.48;69.90;100329.02;181565;1254;43811;-85
2023/12/19 11:16:34;;;;;;;13.20;8.20;;;;;;;10.52;70.13;100332.28;181907;1254;44073;-86
2023/12/19 11:20:50;;;;;;;8.40;6.60;;;;;;;10.57;70.58;100330.44;181782;1258;44116;-87
2023/12/19 11:25:12;;;;;;;8.80;5.90;;;;;;;10.60;70.09;100319.23;181685;1256;59680;-86
2023/12/19 11:29:50;;;;;;;6.50;5.90;;;;;;;10.59;70.66;100305.48;181881;1254;43860;-87
2023/12/19 11:33:54;;;;;;;10.50;7.20;;;;;;;10.67;70.35;100308.40;181616;1254;43963;-88
2023/12/19 11:38:24;;;;;;;11.70;6.70;;;;;;;10.74;71.36;100309.93;181593;1255;43879;-87
2023/12/19 11:42:39;;;;;;;10.80;8.80;;;;;;;10.81;72.52;100299.63;181620;1254;43917;-87
2023/12/19 11:46:43;;;;;;;8.00;6.20;;;;;;;10.92;73.09;100303.80;181729;1255;59434;-85
2023/12/19 11:50:47;;;;;;;8.20;5.20;;;;;;;11.02;74.79;100303.96;181672;1253;44145;-86
2023/12/19 11:54:50;;;;;;;7.90;4.80;;;;;;;11.05;76.47;100305.26;181572;1255;44050;-87
2023/12/19 11:58:56;;;;;;;8.70;5.80;;;;;;;11.08;77.32;100306.14;181601;1254;44044;-87
2023/12/19 12:03:08;;;;;;;6.80;5.80;;;;;;;11.11;77.11;100290.56;181470;1254;44125;-87
2023/12/19 12:07:12;;;;;;;11.70;5.80;;;;;;;11.11;75.35;100277.61;181633;1254;59598;-85
2023/12/19 12:11:15;;;;;;;6.60;4.70;;;;;;;11.13;74.48;100265.02;181602;1254;43856;-87
2023/12/19 12:15:23;;;;;;;6.90;4.30;;;;;;;11.12;73.45;100253.77;181666;1256;44068;-87
2023/12/19 12:19:27;;;;;;;6.70;4.20;;;;;;;11.11;72.79;100251.58;181540;1256;44331;-86
2023/12/19 12:23:33;;;;;;;6.80;4.60;;;;;;;11.10;74.76;100244.67;181551;1256;44106;-87
2023/12/19 12:27:36;;;;;;;6.70;4.10;;;;;;;11.07;75.77;100242.44;181817;1254;58175;-86
2023/12/19 12:31:40;;;;;;;8.20;5.50;;;;;;;11.07;77.49;100243.67;181549;1254;44045;-87
2023/12/19 12:35:43;;;;;;;10.00;6.00;;;;;;;11.04;78.36;100244.64;181465;1254;43877;-87
2023/12/19 12:39:47;;;;;;;7.90;5.30;;;;;;;10.97;78.87;100231.04;181566;1252;44067;-87
2023/12/19 12:43:51;;;;;;;8.30;4.90;;;;;;;10.90;77.90;100218.12;181452;1254;44083;-87
2023/12/19 12:47:54;;;;;;;10.80;6.30;;;;;;;10.84;77.05;100205.57;181599;1254;58207;-87
2023/12/19 12:51:59;;;;;;;18.30;12.80;;;;;;;10.77;76.23;100200.95;181574;1254;44086;-87
2023/12/19 12:56:14;;;;;;;16.20;11.50;;;;;;;10.74;76.19;100195.36;181525;1254;43916;-87
2023/12/19 13:00:18;;;;;;;20.70;13.80;;;;;;;10.67;74.99;100180.54;181547;1254;44096;-87
2023/12/19 13:04:29;;;;;;;17.20;14.00;;;;;;;10.61;74.61;100166.33;181623;1254;43864;-87
2023/12/19 13:08:33;;;;;;;23.40;13.40;;;;;;;10.50;74.47;100152.54;181547;1254;57643;-87
2023/12/19 13:12:41;;;;;;;23.10;11.60;;;;;;;10.43;74.02;100147.19;181435;1254;44110;-86
2023/12/19 13:16:45;;;;;;;40.00;28.10;;;;;;;10.38;73.13;100139.09;181502;1254;43876;-87
2023/12/19 13:20:48;;;;;;;54.20;29.80;;;;;;;10.33;72.85;100123.40;181502;1254;43860;-87
2023/12/19 13:24:51;;;;;;;37.90;24.40;;;;;;;10.31;71.83;100120.67;181602;1254;43800;-84
2023/12/19 13:28:55;;;;;;;30.30;21.00;;;;;;;10.28;71.89;100115.98;181603;1254;59783;-87
2023/12/19 13:32:58;;;;;;;22.60;15.00;;;;;;;10.30;71.72;100116.56;181537;1254;44115;-87
2023/12/19 13:37:02;;;;;;;14.80;10.40;;;;;;;10.34;71.05;100126.16;181562;1254;43841;-87
2023/12/19 13:41:05;;;;;;;15.10;8.90;;;;;;;10.37;70.70;100130.68;181642;1254;43887;-87
2023/12/19 13:45:09;;;;;;;22.00;13.40;;;;;;;10.38;71.64;100133.41;181568;1254;43783;-87
2023/12/19 13:49:12;;;;;;;19.80;12.90;;;;;;;10.36;74.66;100136.09;181509;1254;59518;-86
2023/12/19 13:53:15;;;;;;;18.40;10.30;;;;;;;10.34;76.05;100134.79;181527;1254;44025;-87
2023/12/19 13:57:18;;;;;;;19.00;10.80;;;;;;;10.32;75.87;100129.28;181494;1254;43989;-86
2023/12/19 14:01:22;;;;;;;16.10;9.70;;;;;;;10.24;76.03;100115.59;181571;1253;43926;-87
2023/12/19 14:05:26;;;;;;;20.70;11.50;;;;;;;10.14;76.74;100108.23;181645;1254;43856;-87
2023/12/19 14:09:31;;;;;;;43.20;23.30;;;;;;;10.07;75.60;100095.39;181545;1254;60561;-86
2023/12/19 14:13:34;;;;;;;50.20;32.60;;;;;;;10.02;75.86;100081.80;181641;1254;44059;-85
2023/12/19 14:17:37;;;;;;;44.80;29.60;;;;;;;9.99;73.30;100073.31;181635;1254;43793;-86
2023/12/19 14:21:41;;;;;;;72.30;38.00;;;;;;;10.00;69.68;100070.61;181670;1254;44073;-86
2023/12/19 14:25:44;;;;;;;51.90;28.70;;;;;;;10.06;69.72;100079.91;181559;1254;44090;-84
2023/12/19 14:29:48;;;;;;;35.10;18.50;;;;;;;10.05;71.37;100067.94;181784;1254;60540;-86
2023/12/19 14:33:51;;;;;;;18.70;11.90;;;;;;;10.03;72.09;100055.64;181591;1254;44065;-86
2023/12/19 14:37:54;;;;;;;17.90;10.70;;;;;;;10.07;73.16;100066.49;181597;1255;44175;-86
2023/12/19 14:41:57;;;;;;;13.90;10.30;;;;;;;10.12;73.33;100071.05;181469;1254;43883;-85
2023/12/19 14:46:00;;;;;;;17.40;9.80;;;;;;;10.09;73.47;100065.28;181560;1253;43892;-85
2023/12/19 14:50:04;;;;;;;12.80;8.30;;;;;;;10.07;73.65;100068.79;181469;1254;59564;-85
2023/12/19 14:54:08;;;;;;;12.70;7.50;;;;;;;10.07;72.58;100067.20;181530;1254;43871;-85
2023/12/19 14:58:11;;;;;;;16.80;7.70;;;;;;;10.05;72.71;100070.88;181578;1255;44173;-85
2023/12/19 15:02:15;;;;;;;12.40;7.90;;;;;;;10.02;73.50;100060.69;181597;1254;44476;-84
2023/12/19 15:06:18;;;;;;;12.30;7.70;;;;;;;10.00;74.44;100052.55;181533;1254;43901;-86
2023/12/19 15:10:22;;;;;;;9.50;7.50;;;;;;;9.99;74.28;100053.53;181586;1254;59514;-85
2023/12/19 15:14:26;;;;;;;14.90;8.60;;;;;;;9.95;74.31;100044.45;181558;1254;43818;-85
2023/12/19 15:18:29;;;;;;;11.80;7.90;;;;;;;9.93;74.26;100039.84;181426;1255;43714;-85
2023/12/19 15:22:41;;;;;;;12.20;6.90;;;;;;;9.93;73.87;100041.83;181634;1254;43804;-85
2023/12/19 15:26:44;;;;;;;10.40;8.40;;;;;;;9.94;73.99;100040.44;181501;1252;43877;-84
2023/12/19 15:30:47;;;;;;;17.00;9.70;;;;;;;9.96;74.97;100041.58;181471;1254;58242;-84
2023/12/19 15:34:51;;;;;;;11.60;7.30;;;;;;;9.91;76.37;100034.92;181689;1254;44039;-84
2023/12/19 15:38:54;;;;;;;11.60;7.40;;;;;;;9.88;78.00;100031.08;181445;1254;44109;-84
2023/12/19 15:42:58;;;;;;;10.10;7.50;;;;;;;9.83;76.26;100019.04;181481;1254;44108;-85
2023/12/19 15:47:01;;;;;;;17.60;8.90;;;;;;;9.81;75.31;100014.93;181471;1254;43927;-84
2023/12/19 15:51:05;;;;;;;22.50;11.80;;;;;;;9.77;75.53;100017.93;181457;1254;57569;-84
2023/12/19 15:55:08;;;;;;;17.80;9.50;;;;;;;9.76;76.51;100016.30;181501;1254;44089;-85
2023/12/19 15:59:11;;;;;;;12.20;9.30;;;;;;;9.75;76.28;100013.55;181632;1254;44031;-84
2023/12/19 16:03:16;;;;;;;10.90;7.80;;;;;;;9.70;77.86;100002.75;181744;1254;44293;-85
2023/12/19 16:07:20;;;;;;;18.70;11.10;;;;;;;9.67;77.92;100003.77;181561;1254;43728;-84
2023/12/19 16:11:24;;;;;;;18.40;8.50;;;;;;;9.66;76.00;99999.17;181677;1254;57910;-85
2023/12/19 16:15:28;;;;;;;14.40;8.50;;;;;;;9.69;75.33;99993.93;181490;1254;43781;-85
2023/12/19 16:19:32;;;;;;;9.80;6.30;;;;;;;9.76;75.52;99992.48;181548;1253;43795;-86
2023/12/19 16:23:35;;;;;;;9.70;6.00;;;;;;;9.84;76.24;99994.16;181487;1254;44054;-84
2023/12/19 16:27:44;;;;;;;9.30;6.10;;;;;;;9.91;76.65;99999.64;181524;1256;43900;-84
2023/12/19 16:31:51;;;;;;;7.30;5.20;;;;;;;9.96;76.28;99991.56;181551;1254;59297;-85
2023/12/19 16:35:55;;;;;;;9.30;5.90;;;;;;;10.03;76.03;99985.18;181625;1254;43818;-86
2023/12/19 16:39:58;;;;;;;13.60;7.00;;;;;;;10.08;76.69;99979.42;181550;1253;43788;-85
2023/12/19 16:44:02;;;;;;;6.80;4.80;;;;;;;10.13;79.11;99976.29;181462;1253;44067;-85
2023/12/19 16:48:05;;;;;;;8.40;6.20;;;;;;;10.23;81.09;99986.36;181608;1254;43876;-85
2023/12/19 16:52:09;;;;;;;9.60;6.40;;;;;;;10.30;82.79;99982.33;181641;1253;59345;-85
2023/12/19 16:56:13;;;;;;;10.60;6.50;;;;;;;10.33;84.51;99974.27;181619;1254;44307;-85
2023/12/19 17:00:16;;;;;;;17.10;10.10;;;;;;;10.37;83.87;99957.80;181633;1254;43803;-85
2023/12/19 17:04:19;;;;;;;9.20;6.70;;;;;;;10.40;85.01;99955.29;181539;1254;44235;-85
2023/12/19 17:08:22;;;;;;;6.40;3.30;;;;;;;10.48;89.83;99961.76;181666;1254;43839;-85
2023/12/19 17:12:26;;;;;;;7.40;3.00;;;;;;;10.61;93.58;99955.84;181713;1253;57378;-86
2023/12/19 17:16:30;;;;;;;4.00;2.70;;;;;;;10.74;96.00;99958.97;181753;1254;46209;-86
2023/12/19 17:20:33;;;;;;;2.70;2.20;;;;;;;10.79;98.87;99953.88;181540;1254;44036;-85
2023/12/19 17:24:36;;;;;;;4.50;3.20;;;;;;;10.78;99.90;99960.90;181618;1255;43669;-85
2023/12/19 17:28:43;;;;;;;;;;;;;;;10.82;100.00;99952.76;181688;1254;44036;-86
2023/12/19 17:32:46;;;;;;;5.00;2.70;;;;;;;10.83;100.00;99947.52;181557;1253;59292;-86
2023/12/19 17:36:50;;;;;;;4.60;2.30;;;;;;;10.80;100.00;99944.04;181577;1254;44163;-85
2023/12/19 17:40:54;;;;;;;3.90;2.80;;;;;;;10.80;100.00;99945.27;181565;1253;44460;-87
2023/12/19 17:44:57;;;;;;;3.40;2.90;;;;;;;10.80;100.00;99944.37;181562;1254;44105;-87
2023/12/19 17:49:00;;;;;;;3.50;2.80;;;;;;;10.79;100.00;99939.56;181583;1254;43782;-88
2023/12/19 17:53:04;;;;;;;3.30;2.70;;;;;;;10.76;100.00;99934.86;181429;1253;59525;-87
2023/12/19 17:57:08;;;;;;;6.60;3.70;;;;;;;10.71;100.00;99931.86;181722;1253;43947;-87
2023/12/19 18:01:11;;;;;;;4.70;2.90;;;;;;;10.68;100.00;99925.95;181674;1253;44112;-86
2023/12/19 18:05:15;;;;;;;6.30;3.50;;;;;;;10.66;100.00;99922.92;181481;1253;44060;-87
2023/12/19 18:09:19;;;;;;;5.50;4.90;;;;;;;10.64;100.00;99917.46;181428;1254;44031;-87
2023/12/19 18:13:23;;;;;;;5.20;2.30;;;;;;;10.57;100.00;99907.55;181440;1254;60617;-87
2023/12/19 18:17:27;;;;;;;4.30;3.80;;;;;;;10.46;100.00;99904.44;181432;1253;43889;-87
2023/12/19 18:21:30;;;;;;;6.70;4.40;;;;;;;10.37;100.00;99894.70;181713;1254;43922;-87
2023/12/19 18:25:33;;;;;;;6.90;4.20;;;;;;;10.34;100.00;99892.56;181520;1253;44132;-86
2023/12/19 18:29:38;;;;;;;4.70;3.10;;;;;;;10.35;100.00;99892.63;181574;1252;44008;-89
2023/12/19 18:33:41;;;;;;;6.60;3.70;;;;;;;10.35;100.00;99886.38;181413;1253;59332;-87
2023/12/19 18:37:45;;;;;;;3.80;3.40;;;;;;;10.29;100.00;99884.06;181482;1253;43837;-87
2023/12/19 18:41:48;;;;;;;7.60;3.80;;;;;;;10.22;100.00;99876.50;181371;1254;45023;-88